sensor_id;sensor_type;location;lat;lon;timestamp;P1;durP1;ratioP1;P2;durP2;ratioP2
73023;SDS011;72676;47.526;8.538;2023-11-21T00:02:25;15.87;;;3.00;;
73023;SDS011;72676;47.526;8.538;2023-11-21T00:04:53;12.40;;;2.50;;
73023;SDS011;72676;47.526;8.538;2023-11-21T00:07:20;10.90;;;2.23;;
73023;SDS011;72676;47.526;8.538;2023-11-21T00:09:47;16.77;;;2.33;;
73023;SDS011;72676;47.526;8.538;2023-11-21T00:12:14;8.07;;;2.17;;
73023;SDS011;72676;47.526;8.538;2023-11-21T00:14:40;9.87;;;2.33;;
73023;SDS011;72676;47.526;8.538;2023-11-21T00:17:07;14.97;;;2.60;;
73023;SDS011;72676;47.526;8.538;2023-11-21T00:19:33;13.67;;;2.47;;
73023;SDS011;72676;47.526;8.538;2023-11-21T00:22:01;11.37;;;2.70;;
73023;SDS011;72676;47.526;8.538;2023-11-21T00:24:27;10.97;;;2.60;;
73023;SDS011;72676;47.526;8.538;2023-11-21T00:26:54;13.90;;;2.47;;
73023;SDS011;72676;47.526;8.538;2023-11-21T00:29:20;15.73;;;2.70;;
73023;SDS011;72676;47.526;8.538;2023-11-21T00:31:47;15.53;;;2.80;;
73023;SDS011;72676;47.526;8.538;2023-11-21T00:34:13;6.07;;;1.97;;
73023;SDS011;72676;47.526;8.538;2023-11-21T00:36:40;14.10;;;2.37;;
73023;SDS011;72676;47.526;8.538;2023-11-21T00:39:06;16.33;;;2.30;;
73023;SDS011;72676;47.526;8.538;2023-11-21T00:41:33;9.93;;;2.27;;
73023;SDS011;72676;47.526;8.538;2023-11-21T00:44:00;11.00;;;2.30;;
73023;SDS011;72676;47.526;8.538;2023-11-21T00:46:28;16.23;;;2.90;;
73023;SDS011;72676;47.526;8.538;2023-11-21T00:48:55;10.10;;;2.00;;
73023;SDS011;72676;47.526;8.538;2023-11-21T00:51:22;8.27;;;2.23;;
73023;SDS011;72676;47.526;8.538;2023-11-21T00:53:48;13.63;;;2.40;;
73023;SDS011;72676;47.526;8.538;2023-11-21T00:56:15;11.73;;;2.80;;
73023;SDS011;72676;47.526;8.538;2023-11-21T00:58:41;16.73;;;3.10;;
73023;SDS011;72676;47.526;8.538;2023-11-21T01:01:16;7.70;;;2.13;;
73023;SDS011;72676;47.526;8.538;2023-11-21T01:03:42;6.30;;;2.37;;
73023;SDS011;72676;47.526;8.538;2023-11-21T01:06:09;9.10;;;2.33;;
73023;SDS011;72676;47.526;8.538;2023-11-21T01:08:38;12.43;;;2.60;;
73023;SDS011;72676;47.526;8.538;2023-11-21T01:11:04;12.60;;;2.37;;
73023;SDS011;72676;47.526;8.538;2023-11-21T01:13:34;4.80;;;1.90;;
73023;SDS011;72676;47.526;8.538;2023-11-21T01:16:01;8.63;;;2.23;;
73023;SDS011;72676;47.526;8.538;2023-11-21T01:18:28;8.67;;;2.00;;
73023;SDS011;72676;47.526;8.538;2023-11-21T01:20:55;13.53;;;1.90;;
73023;SDS011;72676;47.526;8.538;2023-11-21T01:23:21;7.53;;;1.83;;
73023;SDS011;72676;47.526;8.538;2023-11-21T01:25:49;9.30;;;1.77;;
73023;SDS011;72676;47.526;8.538;2023-11-21T01:28:17;8.60;;;1.73;;
73023;SDS011;72676;47.526;8.538;2023-11-21T01:30:44;9.33;;;2.20;;
73023;SDS011;72676;47.526;8.538;2023-11-21T01:33:10;7.00;;;1.70;;
73023;SDS011;72676;47.526;8.538;2023-11-21T01:35:37;8.53;;;1.60;;
73023;SDS011;72676;47.526;8.538;2023-11-21T01:38:03;6.53;;;1.40;;
73023;SDS011;72676;47.526;8.538;2023-11-21T01:40:30;9.63;;;1.77;;
73023;SDS011;72676;47.526;8.538;2023-11-21T01:42:56;7.60;;;1.97;;
73023;SDS011;72676;47.526;8.538;2023-11-21T01:45:24;9.93;;;1.33;;
73023;SDS011;72676;47.526;8.538;2023-11-21T01:47:51;5.47;;;1.47;;
73023;SDS011;72676;47.526;8.538;2023-11-21T01:50:22;9.20;;;1.50;;
73023;SDS011;72676;47.526;8.538;2023-11-21T01:52:49;5.47;;;1.60;;
73023;SDS011;72676;47.526;8.538;2023-11-21T01:55:16;8.47;;;2.00;;
73023;SDS011;72676;47.526;8.538;2023-11-21T01:57:54;10.87;;;1.93;;
73023;SDS011;72676;47.526;8.538;2023-11-21T02:00:22;11.37;;;1.80;;
73023;SDS011;72676;47.526;8.538;2023-11-21T02:02:49;5.70;;;1.60;;
73023;SDS011;72676;47.526;8.538;2023-11-21T02:05:16;7.83;;;1.83;;
73023;SDS011;72676;47.526;8.538;2023-11-21T02:07:47;9.03;;;1.37;;
73023;SDS011;72676;47.526;8.538;2023-11-21T02:10:14;4.37;;;1.17;;
73023;SDS011;72676;47.526;8.538;2023-11-21T02:12:42;6.63;;;1.50;;
73023;SDS011;72676;47.526;8.538;2023-11-21T02:15:10;6.93;;;1.60;;
73023;SDS011;72676;47.526;8.538;2023-11-21T02:17:41;7.20;;;1.77;;
73023;SDS011;72676;47.526;8.538;2023-11-21T02:20:13;7.90;;;1.20;;
73023;SDS011;72676;47.526;8.538;2023-11-21T02:22:44;9.87;;;2.30;;
73023;SDS011;72676;47.526;8.538;2023-11-21T02:25:28;7.33;;;1.50;;
73023;SDS011;72676;47.526;8.538;2023-11-21T02:27:56;14.20;;;1.90;;
73023;SDS011;72676;47.526;8.538;2023-11-21T02:30:23;10.27;;;2.07;;
73023;SDS011;72676;47.526;8.538;2023-11-21T02:32:51;19.10;;;2.90;;
73023;SDS011;72676;47.526;8.538;2023-11-21T02:35:21;8.40;;;2.50;;
73023;SDS011;72676;47.526;8.538;2023-11-21T02:37:47;9.70;;;1.57;;
73023;SDS011;72676;47.526;8.538;2023-11-21T02:40:14;8.70;;;1.57;;
73023;SDS011;72676;47.526;8.538;2023-11-21T02:42:44;8.87;;;1.60;;
73023;SDS011;72676;47.526;8.538;2023-11-21T02:45:11;10.83;;;1.77;;
73023;SDS011;72676;47.526;8.538;2023-11-21T02:47:43;10.50;;;2.03;;
73023;SDS011;72676;47.526;8.538;2023-11-21T02:50:10;5.60;;;1.63;;
73023;SDS011;72676;47.526;8.538;2023-11-21T02:52:36;7.37;;;1.07;;
73023;SDS011;72676;47.526;8.538;2023-11-21T02:55:03;9.23;;;1.40;;
73023;SDS011;72676;47.526;8.538;2023-11-21T02:57:30;4.63;;;1.40;;
73023;SDS011;72676;47.526;8.538;2023-11-21T02:59:56;6.80;;;1.60;;
73023;SDS011;72676;47.526;8.538;2023-11-21T03:02:23;4.00;;;1.30;;
73023;SDS011;72676;47.526;8.538;2023-11-21T03:04:49;8.00;;;1.57;;
73023;SDS011;72676;47.526;8.538;2023-11-21T03:07:16;8.87;;;1.57;;
73023;SDS011;72676;47.526;8.538;2023-11-21T03:09:45;4.77;;;1.47;;
73023;SDS011;72676;47.526;8.538;2023-11-21T03:12:12;10.23;;;1.17;;
73023;SDS011;72676;47.526;8.538;2023-11-21T03:14:41;4.70;;;1.10;;
73023;SDS011;72676;47.526;8.538;2023-11-21T03:17:07;7.20;;;1.23;;
73023;SDS011;72676;47.526;8.538;2023-11-21T03:19:34;6.97;;;1.60;;
73023;SDS011;72676;47.526;8.538;2023-11-21T03:22:00;6.60;;;1.43;;
73023;SDS011;72676;47.526;8.538;2023-11-21T03:24:26;6.70;;;1.83;;
73023;SDS011;72676;47.526;8.538;2023-11-21T03:26:53;13.10;;;2.27;;
73023;SDS011;72676;47.526;8.538;2023-11-21T03:29:19;8.30;;;1.33;;
73023;SDS011;72676;47.526;8.538;2023-11-21T03:31:46;6.17;;;1.10;;
73023;SDS011;72676;47.526;8.538;2023-11-21T03:34:16;3.60;;;1.13;;
73023;SDS011;72676;47.526;8.538;2023-11-21T03:36:46;7.73;;;2.23;;
73023;SDS011;72676;47.526;8.538;2023-11-21T03:39:13;7.03;;;1.80;;
73023;SDS011;72676;47.526;8.538;2023-11-21T03:41:39;4.40;;;1.30;;
73023;SDS011;72676;47.526;8.538;2023-11-21T03:44:06;7.70;;;1.43;;
73023;SDS011;72676;47.526;8.538;2023-11-21T03:46:32;9.03;;;1.50;;
73023;SDS011;72676;47.526;8.538;2023-11-21T03:48:58;7.27;;;1.40;;
73023;SDS011;72676;47.526;8.538;2023-11-21T03:51:25;7.07;;;1.63;;
73023;SDS011;72676;47.526;8.538;2023-11-21T03:53:51;8.67;;;1.40;;
73023;SDS011;72676;47.526;8.538;2023-11-21T03:56:18;7.80;;;2.10;;
73023;SDS011;72676;47.526;8.538;2023-11-21T03:58:44;8.43;;;1.57;;
73023;SDS011;72676;47.526;8.538;2023-11-21T04:01:11;8.57;;;1.80;;
73023;SDS011;72676;47.526;8.538;2023-11-21T04:03:37;9.03;;;1.70;;
73023;SDS011;72676;47.526;8.538;2023-11-21T04:06:05;15.23;;;2.40;;
73023;SDS011;72676;47.526;8.538;2023-11-21T04:08:32;7.77;;;1.77;;
73023;SDS011;72676;47.526;8.538;2023-11-21T04:10:59;7.80;;;3.00;;
73023;SDS011;72676;47.526;8.538;2023-11-21T04:13:27;8.30;;;1.93;;
73023;SDS011;72676;47.526;8.538;2023-11-21T04:15:53;7.33;;;1.70;;
73023;SDS011;72676;47.526;8.538;2023-11-21T04:18:20;10.03;;;1.80;;
73023;SDS011;72676;47.526;8.538;2023-11-21T04:20:48;4.23;;;1.40;;
73023;SDS011;72676;47.526;8.538;2023-11-21T04:23:14;8.63;;;1.70;;
73023;SDS011;72676;47.526;8.538;2023-11-21T04:25:41;5.93;;;1.80;;
73023;SDS011;72676;47.526;8.538;2023-11-21T04:28:07;6.27;;;1.53;;
73023;SDS011;72676;47.526;8.538;2023-11-21T04:30:34;7.67;;;1.80;;
73023;SDS011;72676;47.526;8.538;2023-11-21T04:33:00;6.63;;;1.43;;
73023;SDS011;72676;47.526;8.538;2023-11-21T04:35:27;7.00;;;1.50;;
73023;SDS011;72676;47.526;8.538;2023-11-21T04:37:53;8.30;;;1.70;;
73023;SDS011;72676;47.526;8.538;2023-11-21T04:40:20;4.80;;;1.40;;
73023;SDS011;72676;47.526;8.538;2023-11-21T04:42:47;10.87;;;2.07;;
73023;SDS011;72676;47.526;8.538;2023-11-21T04:45:15;8.80;;;1.60;;
73023;SDS011;72676;47.526;8.538;2023-11-21T04:47:42;12.23;;;1.43;;
73023;SDS011;72676;47.526;8.538;2023-11-21T04:50:09;5.30;;;1.33;;
73023;SDS011;72676;47.526;8.538;2023-11-21T04:52:36;6.63;;;1.63;;
73023;SDS011;72676;47.526;8.538;2023-11-21T04:55:03;10.37;;;1.50;;
73023;SDS011;72676;47.526;8.538;2023-11-21T04:57:29;6.13;;;1.70;;
73023;SDS011;72676;47.526;8.538;2023-11-21T04:59:56;8.33;;;1.63;;
73023;SDS011;72676;47.526;8.538;2023-11-21T05:02:23;8.40;;;1.63;;
73023;SDS011;72676;47.526;8.538;2023-11-21T05:05:01;13.60;;;2.10;;
73023;SDS011;72676;47.526;8.538;2023-11-21T05:07:28;8.10;;;2.17;;
73023;SDS011;72676;47.526;8.538;2023-11-21T05:09:58;9.47;;;2.07;;
73023;SDS011;72676;47.526;8.538;2023-11-21T05:12:24;7.37;;;2.50;;
73023;SDS011;72676;47.526;8.538;2023-11-21T05:14:51;13.53;;;2.50;;
73023;SDS011;72676;47.526;8.538;2023-11-21T05:17:18;6.80;;;1.93;;
73023;SDS011;72676;47.526;8.538;2023-11-21T05:19:44;10.70;;;2.30;;
73023;SDS011;72676;47.526;8.538;2023-11-21T05:22:15;8.40;;;2.00;;
73023;SDS011;72676;47.526;8.538;2023-11-21T05:24:41;9.60;;;1.90;;
73023;SDS011;72676;47.526;8.538;2023-11-21T05:27:08;8.67;;;1.70;;
73023;SDS011;72676;47.526;8.538;2023-11-21T05:29:35;9.53;;;1.87;;
73023;SDS011;72676;47.526;8.538;2023-11-21T05:32:03;9.50;;;1.77;;
73023;SDS011;72676;47.526;8.538;2023-11-21T05:34:30;8.07;;;1.60;;
73023;SDS011;72676;47.526;8.538;2023-11-21T05:36:56;9.97;;;1.97;;
73023;SDS011;72676;47.526;8.538;2023-11-21T05:39:24;6.27;;;1.63;;
73023;SDS011;72676;47.526;8.538;2023-11-21T05:41:50;6.07;;;1.30;;
73023;SDS011;72676;47.526;8.538;2023-11-21T05:44:17;6.63;;;1.30;;
73023;SDS011;72676;47.526;8.538;2023-11-21T05:46:44;13.00;;;1.90;;
73023;SDS011;72676;47.526;8.538;2023-11-21T05:49:10;6.20;;;1.70;;
73023;SDS011;72676;47.526;8.538;2023-11-21T05:51:37;10.93;;;1.77;;
73023;SDS011;72676;47.526;8.538;2023-11-21T05:54:04;7.43;;;1.50;;
73023;SDS011;72676;47.526;8.538;2023-11-21T05:56:31;9.47;;;1.60;;
73023;SDS011;72676;47.526;8.538;2023-11-21T05:58:57;15.63;;;2.00;;
73023;SDS011;72676;47.526;8.538;2023-11-21T06:01:24;14.17;;;2.13;;
73023;SDS011;72676;47.526;8.538;2023-11-21T06:03:54;5.93;;;1.67;;
73023;SDS011;72676;47.526;8.538;2023-11-21T06:06:21;13.33;;;2.30;;
73023;SDS011;72676;47.526;8.538;2023-11-21T06:08:51;7.60;;;1.90;;
73023;SDS011;72676;47.526;8.538;2023-11-21T06:11:18;6.00;;;1.70;;
73023;SDS011;72676;47.526;8.538;2023-11-21T06:13:44;8.70;;;1.80;;
73023;SDS011;72676;47.526;8.538;2023-11-21T06:16:11;3.90;;;1.40;;
73023;SDS011;72676;47.526;8.538;2023-11-21T06:18:42;13.77;;;2.13;;
73023;SDS011;72676;47.526;8.538;2023-11-21T06:21:09;7.27;;;1.73;;
73023;SDS011;72676;47.526;8.538;2023-11-21T06:23:36;7.10;;;1.50;;
73023;SDS011;72676;47.526;8.538;2023-11-21T06:26:03;8.07;;;1.80;;
73023;SDS011;72676;47.526;8.538;2023-11-21T06:28:31;7.83;;;1.70;;
73023;SDS011;72676;47.526;8.538;2023-11-21T06:30:57;9.50;;;1.70;;
73023;SDS011;72676;47.526;8.538;2023-11-21T06:33:24;7.07;;;1.90;;
73023;SDS011;72676;47.526;8.538;2023-11-21T06:35:53;7.50;;;1.60;;
73023;SDS011;72676;47.526;8.538;2023-11-21T06:38:21;6.47;;;2.03;;
73023;SDS011;72676;47.526;8.538;2023-11-21T06:40:47;10.87;;;1.90;;
73023;SDS011;72676;47.526;8.538;2023-11-21T06:43:14;6.57;;;1.80;;
73023;SDS011;72676;47.526;8.538;2023-11-21T06:45:41;6.97;;;1.80;;
73023;SDS011;72676;47.526;8.538;2023-11-21T06:48:08;5.50;;;1.83;;
73023;SDS011;72676;47.526;8.538;2023-11-21T06:50:34;6.90;;;1.50;;
73023;SDS011;72676;47.526;8.538;2023-11-21T06:53:01;9.80;;;1.73;;
73023;SDS011;72676;47.526;8.538;2023-11-21T06:55:30;4.03;;;1.40;;
73023;SDS011;72676;47.526;8.538;2023-11-21T06:57:57;7.73;;;1.83;;
73023;SDS011;72676;47.526;8.538;2023-11-21T07:00:24;7.23;;;1.43;;
73023;SDS011;72676;47.526;8.538;2023-11-21T07:02:50;11.27;;;2.20;;
73023;SDS011;72676;47.526;8.538;2023-11-21T07:05:17;7.20;;;1.70;;
73023;SDS011;72676;47.526;8.538;2023-11-21T07:07:47;6.03;;;2.13;;
73023;SDS011;72676;47.526;8.538;2023-11-21T07:10:15;5.10;;;1.60;;
73023;SDS011;72676;47.526;8.538;2023-11-21T07:12:41;7.97;;;1.70;;
73023;SDS011;72676;47.526;8.538;2023-11-21T07:15:08;8.27;;;1.70;;
73023;SDS011;72676;47.526;8.538;2023-11-21T07:17:38;8.40;;;1.97;;
73023;SDS011;72676;47.526;8.538;2023-11-21T07:20:07;6.17;;;1.80;;
73023;SDS011;72676;47.526;8.538;2023-11-21T07:22:34;7.83;;;1.60;;
73023;SDS011;72676;47.526;8.538;2023-11-21T07:25:01;9.90;;;2.03;;
73023;SDS011;72676;47.526;8.538;2023-11-21T07:27:27;6.13;;;2.07;;
73023;SDS011;72676;47.526;8.538;2023-11-21T07:29:54;5.53;;;1.70;;
73023;SDS011;72676;47.526;8.538;2023-11-21T07:32:21;7.03;;;1.73;;
73023;SDS011;72676;47.526;8.538;2023-11-21T07:34:47;9.77;;;2.03;;
73023;SDS011;72676;47.526;8.538;2023-11-21T07:37:14;11.57;;;2.43;;
73023;SDS011;72676;47.526;8.538;2023-11-21T07:39:40;11.00;;;2.37;;
73023;SDS011;72676;47.526;8.538;2023-11-21T07:42:08;12.27;;;1.80;;
73023;SDS011;72676;47.526;8.538;2023-11-21T07:44:35;7.40;;;2.30;;
73023;SDS011;72676;47.526;8.538;2023-11-21T07:47:01;8.17;;;2.47;;
73023;SDS011;72676;47.526;8.538;2023-11-21T07:49:28;6.93;;;2.27;;
73023;SDS011;72676;47.526;8.538;2023-11-21T07:51:54;8.80;;;1.97;;
73023;SDS011;72676;47.526;8.538;2023-11-21T07:54:21;10.90;;;2.70;;
73023;SDS011;72676;47.526;8.538;2023-11-21T07:56:47;6.77;;;2.70;;
73023;SDS011;72676;47.526;8.538;2023-11-21T07:59:14;9.17;;;2.60;;
73023;SDS011;72676;47.526;8.538;2023-11-21T08:01:41;8.13;;;3.10;;
73023;SDS011;72676;47.526;8.538;2023-11-21T08:04:09;6.87;;;2.50;;
73023;SDS011;72676;47.526;8.538;2023-11-21T08:06:36;9.43;;;2.77;;
73023;SDS011;72676;47.526;8.538;2023-11-21T08:09:02;6.23;;;2.23;;
73023;SDS011;72676;47.526;8.538;2023-11-21T08:11:29;18.07;;;3.30;;
73023;SDS011;72676;47.526;8.538;2023-11-21T08:13:57;7.67;;;3.00;;
73023;SDS011;72676;47.526;8.538;2023-11-21T08:16:25;7.37;;;2.40;;
73023;SDS011;72676;47.526;8.538;2023-11-21T08:18:52;13.27;;;2.70;;
73023;SDS011;72676;47.526;8.538;2023-11-21T08:21:18;12.37;;;3.13;;
73023;SDS011;72676;47.526;8.538;2023-11-21T08:23:45;9.73;;;2.70;;
73023;SDS011;72676;47.526;8.538;2023-11-21T08:26:15;6.73;;;2.23;;
73023;SDS011;72676;47.526;8.538;2023-11-21T08:28:42;10.17;;;2.70;;
73023;SDS011;72676;47.526;8.538;2023-11-21T08:31:08;9.70;;;2.40;;
73023;SDS011;72676;47.526;8.538;2023-11-21T08:33:37;15.10;;;3.30;;
73023;SDS011;72676;47.526;8.538;2023-11-21T08:36:07;17.43;;;2.57;;
73023;SDS011;72676;47.526;8.538;2023-11-21T08:38:35;6.70;;;2.23;;
73023;SDS011;72676;47.526;8.538;2023-11-21T08:41:05;7.73;;;2.70;;
73023;SDS011;72676;47.526;8.538;2023-11-21T08:43:34;8.93;;;2.13;;
73023;SDS011;72676;47.526;8.538;2023-11-21T08:46:01;11.93;;;2.60;;
73023;SDS011;72676;47.526;8.538;2023-11-21T08:48:27;8.27;;;3.00;;
73023;SDS011;72676;47.526;8.538;2023-11-21T08:50:55;10.80;;;2.53;;
73023;SDS011;72676;47.526;8.538;2023-11-21T08:53:22;6.93;;;2.10;;
73023;SDS011;72676;47.526;8.538;2023-11-21T08:55:49;11.53;;;2.30;;
73023;SDS011;72676;47.526;8.538;2023-11-21T08:58:16;9.47;;;2.40;;
73023;SDS011;72676;47.526;8.538;2023-11-21T09:00:43;9.53;;;2.73;;
73023;SDS011;72676;47.526;8.538;2023-11-21T09:03:12;8.30;;;2.13;;
73023;SDS011;72676;47.526;8.538;2023-11-21T09:05:39;8.27;;;2.80;;
73023;SDS011;72676;47.526;8.538;2023-11-21T09:08:06;7.20;;;2.50;;
73023;SDS011;72676;47.526;8.538;2023-11-21T09:10:33;12.50;;;2.63;;
73023;SDS011;72676;47.526;8.538;2023-11-21T09:13:02;6.17;;;2.10;;
73023;SDS011;72676;47.526;8.538;2023-11-21T09:15:29;21.33;;;4.43;;
73023;SDS011;72676;47.526;8.538;2023-11-21T09:17:56;8.70;;;2.67;;
73023;SDS011;72676;47.526;8.538;2023-11-21T09:20:22;7.53;;;2.30;;
73023;SDS011;72676;47.526;8.538;2023-11-21T09:22:49;7.70;;;2.03;;
73023;SDS011;72676;47.526;8.538;2023-11-21T09:25:15;13.70;;;2.50;;
73023;SDS011;72676;47.526;8.538;2023-11-21T09:27:42;13.93;;;2.13;;
73023;SDS011;72676;47.526;8.538;2023-11-21T09:30:09;9.33;;;2.20;;
73023;SDS011;72676;47.526;8.538;2023-11-21T09:32:37;13.43;;;3.67;;
73023;SDS011;72676;47.526;8.538;2023-11-21T09:35:04;9.80;;;2.60;;
73023;SDS011;72676;47.526;8.538;2023-11-21T09:37:31;7.93;;;2.63;;
73023;SDS011;72676;47.526;8.538;2023-11-21T09:39:58;7.97;;;2.73;;
73023;SDS011;72676;47.526;8.538;2023-11-21T09:48:00;8.90;;;2.47;;
73023;SDS011;72676;47.526;8.538;2023-11-21T09:50:27;7.10;;;1.80;;
73023;SDS011;72676;47.526;8.538;2023-11-21T09:53:08;8.27;;;2.50;;
73023;SDS011;72676;47.526;8.538;2023-11-21T09:55:42;8.40;;;2.13;;
73023;SDS011;72676;47.526;8.538;2023-11-21T09:58:10;10.53;;;2.00;;
73023;SDS011;72676;47.526;8.538;2023-11-21T10:00:44;6.30;;;2.30;;
73023;SDS011;72676;47.526;8.538;2023-11-21T10:03:12;11.33;;;2.73;;
73023;SDS011;72676;47.526;8.538;2023-11-21T10:05:40;6.00;;;2.10;;
73023;SDS011;72676;47.526;8.538;2023-11-21T10:08:09;8.63;;;2.07;;
73023;SDS011;72676;47.526;8.538;2023-11-21T10:10:36;9.73;;;2.30;;
73023;SDS011;72676;47.526;8.538;2023-11-21T10:13:05;8.00;;;2.67;;
73023;SDS011;72676;47.526;8.538;2023-11-21T10:15:34;8.03;;;2.50;;
73023;SDS011;72676;47.526;8.538;2023-11-21T10:18:02;11.20;;;3.10;;
73023;SDS011;72676;47.526;8.538;2023-11-21T10:20:30;8.73;;;2.70;;
73023;SDS011;72676;47.526;8.538;2023-11-21T10:22:57;9.60;;;3.40;;
73023;SDS011;72676;47.526;8.538;2023-11-21T10:25:24;6.67;;;2.97;;
73023;SDS011;72676;47.526;8.538;2023-11-21T10:27:55;8.97;;;2.80;;
73023;SDS011;72676;47.526;8.538;2023-11-21T10:30:27;9.10;;;2.67;;
73023;SDS011;72676;47.526;8.538;2023-11-21T10:32:58;9.53;;;3.13;;
73023;SDS011;72676;47.526;8.538;2023-11-21T10:35:26;6.60;;;2.33;;
73023;SDS011;72676;47.526;8.538;2023-11-21T10:38:04;10.03;;;2.43;;
73023;SDS011;72676;47.526;8.538;2023-11-21T10:40:31;10.63;;;2.63;;
73023;SDS011;72676;47.526;8.538;2023-11-21T10:43:07;8.63;;;2.60;;
73023;SDS011;72676;47.526;8.538;2023-11-21T10:45:39;4.93;;;2.37;;
73023;SDS011;72676;47.526;8.538;2023-11-21T10:48:06;8.23;;;2.67;;
73023;SDS011;72676;47.526;8.538;2023-11-21T10:50:37;14.83;;;2.10;;
73023;SDS011;72676;47.526;8.538;2023-11-21T10:53:04;7.80;;;2.07;;
73023;SDS011;72676;47.526;8.538;2023-11-21T10:55:31;7.30;;;2.47;;
73023;SDS011;72676;47.526;8.538;2023-11-21T10:58:00;7.97;;;2.30;;
73023;SDS011;72676;47.526;8.538;2023-11-21T11:00:28;6.77;;;2.50;;
73023;SDS011;72676;47.526;8.538;2023-11-21T11:02:55;6.80;;;2.60;;
73023;SDS011;72676;47.526;8.538;2023-11-21T11:05:23;4.90;;;2.30;;
73023;SDS011;72676;47.526;8.538;2023-11-21T11:07:53;5.87;;;2.30;;
73023;SDS011;72676;47.526;8.538;2023-11-21T11:10:26;7.90;;;2.30;;
73023;SDS011;72676;47.526;8.538;2023-11-21T11:12:55;7.43;;;2.33;;
73023;SDS011;72676;47.526;8.538;2023-11-21T11:15:27;6.87;;;2.80;;
73023;SDS011;72676;47.526;8.538;2023-11-21T11:17:54;9.40;;;3.30;;
73023;SDS011;72676;47.526;8.538;2023-11-21T11:20:34;13.17;;;2.57;;
73023;SDS011;72676;47.526;8.538;2023-11-21T11:26:02;7.13;;;2.73;;
73023;SDS011;72676;47.526;8.538;2023-11-21T11:31:39;5.00;;;2.40;;
73023;SDS011;72676;47.526;8.538;2023-11-21T11:34:39;3.60;;;2.33;;
73023;SDS011;72676;47.526;8.538;2023-11-21T11:37:07;4.83;;;2.10;;
73023;SDS011;72676;47.526;8.538;2023-11-21T11:39:35;8.67;;;2.60;;
73023;SDS011;72676;47.526;8.538;2023-11-21T11:42:05;6.60;;;2.50;;
73023;SDS011;72676;47.526;8.538;2023-11-21T11:47:25;5.80;;;2.20;;
73023;SDS011;72676;47.526;8.538;2023-11-21T11:55:05;5.40;;;2.60;;
73023;SDS011;72676;47.526;8.538;2023-11-21T11:57:34;4.80;;;2.17;;
73023;SDS011;72676;47.526;8.538;2023-11-21T12:00:11;5.70;;;2.10;;
73023;SDS011;72676;47.526;8.538;2023-11-21T12:03:00;4.83;;;2.33;;
73023;SDS011;72676;47.526;8.538;2023-11-21T12:05:32;6.70;;;2.57;;
73023;SDS011;72676;47.526;8.538;2023-11-21T12:08:02;5.00;;;2.93;;
73023;SDS011;72676;47.526;8.538;2023-11-21T12:10:31;4.90;;;2.37;;
73023;SDS011;72676;47.526;8.538;2023-11-21T12:13:20;6.87;;;2.37;;
73023;SDS011;72676;47.526;8.538;2023-11-21T12:15:45;5.73;;;2.53;;
73023;SDS011;72676;47.526;8.538;2023-11-21T12:18:12;5.70;;;2.30;;
73023;SDS011;72676;47.526;8.538;2023-11-21T12:20:38;6.83;;;2.53;;
73023;SDS011;72676;47.526;8.538;2023-11-21T12:23:07;5.17;;;2.50;;
73023;SDS011;72676;47.526;8.538;2023-11-21T12:25:35;8.93;;;2.80;;
73023;SDS011;72676;47.526;8.538;2023-11-21T12:28:03;7.07;;;2.10;;
73023;SDS011;72676;47.526;8.538;2023-11-21T12:30:30;4.57;;;2.37;;
73023;SDS011;72676;47.526;8.538;2023-11-21T12:32:58;7.27;;;3.10;;
73023;SDS011;72676;47.526;8.538;2023-11-21T12:35:29;4.80;;;2.40;;
73023;SDS011;72676;47.526;8.538;2023-11-21T12:38:00;4.10;;;2.40;;
73023;SDS011;72676;47.526;8.538;2023-11-21T12:40:31;5.67;;;2.70;;
73023;SDS011;72676;47.526;8.538;2023-11-21T12:42:59;5.20;;;2.90;;
73023;SDS011;72676;47.526;8.538;2023-11-21T12:45:28;5.63;;;2.60;;
73023;SDS011;72676;47.526;8.538;2023-11-21T12:47:56;3.90;;;2.23;;
73023;SDS011;72676;47.526;8.538;2023-11-21T12:50:26;5.60;;;2.60;;
73023;SDS011;72676;47.526;8.538;2023-11-21T12:52:58;2.80;;;2.00;;
73023;SDS011;72676;47.526;8.538;2023-11-21T12:55:29;4.20;;;1.80;;
73023;SDS011;72676;47.526;8.538;2023-11-21T12:57:57;8.93;;;2.33;;
73023;SDS011;72676;47.526;8.538;2023-11-21T13:00:33;6.73;;;2.43;;
73023;SDS011;72676;47.526;8.538;2023-11-21T13:03:04;3.27;;;1.97;;
73023;SDS011;72676;47.526;8.538;2023-11-21T13:05:34;4.10;;;2.47;;
73023;SDS011;72676;47.526;8.538;2023-11-21T13:08:05;4.57;;;2.40;;
73023;SDS011;72676;47.526;8.538;2023-11-21T13:10:34;7.97;;;2.53;;
73023;SDS011;72676;47.526;8.538;2023-11-21T13:13:04;4.73;;;2.20;;
73023;SDS011;72676;47.526;8.538;2023-11-21T13:15:39;3.80;;;2.23;;
73023;SDS011;72676;47.526;8.538;2023-11-21T13:18:07;4.50;;;2.47;;
73023;SDS011;72676;47.526;8.538;2023-11-21T13:20:33;7.43;;;4.10;;
73023;SDS011;72676;47.526;8.538;2023-11-21T13:23:06;3.50;;;1.90;;
73023;SDS011;72676;47.526;8.538;2023-11-21T13:25:34;4.47;;;2.20;;
73023;SDS011;72676;47.526;8.538;2023-11-21T13:28:00;6.63;;;2.23;;
73023;SDS011;72676;47.526;8.538;2023-11-21T13:30:28;7.50;;;2.27;;
73023;SDS011;72676;47.526;8.538;2023-11-21T13:33:00;5.63;;;2.63;;
73023;SDS011;72676;47.526;8.538;2023-11-21T13:35:34;8.03;;;2.67;;
73023;SDS011;72676;47.526;8.538;2023-11-21T13:38:10;9.30;;;2.23;;
73023;SDS011;72676;47.526;8.538;2023-11-21T13:40:39;10.50;;;2.40;;
73023;SDS011;72676;47.526;8.538;2023-11-21T13:43:11;5.00;;;2.20;;
73023;SDS011;72676;47.526;8.538;2023-11-21T13:45:40;6.63;;;1.50;;
73023;SDS011;72676;47.526;8.538;2023-11-21T13:48:09;5.30;;;1.40;;
73023;SDS011;72676;47.526;8.538;2023-11-21T13:50:36;7.00;;;2.23;;
73023;SDS011;72676;47.526;8.538;2023-11-21T13:53:03;3.20;;;1.43;;
73023;SDS011;72676;47.526;8.538;2023-11-21T13:55:36;2.73;;;1.47;;
73023;SDS011;72676;47.526;8.538;2023-11-21T13:58:04;3.93;;;1.80;;
73023;SDS011;72676;47.526;8.538;2023-11-21T14:00:35;3.23;;;1.40;;
73023;SDS011;72676;47.526;8.538;2023-11-21T14:03:07;3.83;;;1.60;;
73023;SDS011;72676;47.526;8.538;2023-11-21T14:05:43;3.17;;;1.20;;
73023;SDS011;72676;47.526;8.538;2023-11-21T14:08:12;6.03;;;1.97;;
73023;SDS011;72676;47.526;8.538;2023-11-21T14:10:49;3.17;;;1.50;;
73023;SDS011;72676;47.526;8.538;2023-11-21T14:13:17;3.60;;;1.57;;
73023;SDS011;72676;47.526;8.538;2023-11-21T14:15:44;4.37;;;1.73;;
73023;SDS011;72676;47.526;8.538;2023-11-21T14:18:12;3.57;;;1.40;;
73023;SDS011;72676;47.526;8.538;2023-11-21T14:20:43;4.93;;;1.57;;
73023;SDS011;72676;47.526;8.538;2023-11-21T14:23:10;2.47;;;1.40;;
73023;SDS011;72676;47.526;8.538;2023-11-21T14:25:37;4.70;;;1.60;;
73023;SDS011;72676;47.526;8.538;2023-11-21T14:28:05;2.97;;;1.30;;
73023;SDS011;72676;47.526;8.538;2023-11-21T14:30:32;3.03;;;1.40;;
73023;SDS011;72676;47.526;8.538;2023-11-21T14:33:01;4.87;;;1.70;;
73023;SDS011;72676;47.526;8.538;2023-11-21T14:35:28;2.67;;;1.37;;
73023;SDS011;72676;47.526;8.538;2023-11-21T14:37:58;2.80;;;1.60;;
73023;SDS011;72676;47.526;8.538;2023-11-21T14:40:26;5.90;;;1.80;;
73023;SDS011;72676;47.526;8.538;2023-11-21T14:43:02;7.00;;;1.40;;
73023;SDS011;72676;47.526;8.538;2023-11-21T14:45:32;4.73;;;1.83;;
73023;SDS011;72676;47.526;8.538;2023-11-21T14:47:59;7.20;;;2.03;;
73023;SDS011;72676;47.526;8.538;2023-11-21T14:50:33;4.30;;;2.07;;
73023;SDS011;72676;47.526;8.538;2023-11-21T14:53:03;4.63;;;1.90;;
73023;SDS011;72676;47.526;8.538;2023-11-21T14:55:32;7.50;;;1.93;;
73023;SDS011;72676;47.526;8.538;2023-11-21T14:58:09;5.60;;;1.97;;
73023;SDS011;72676;47.526;8.538;2023-11-21T15:00:39;4.00;;;2.10;;
73023;SDS011;72676;47.526;8.538;2023-11-21T15:03:11;6.73;;;2.10;;
73023;SDS011;72676;47.526;8.538;2023-11-21T15:06:03;3.07;;;1.90;;
73023;SDS011;72676;47.526;8.538;2023-11-21T15:08:51;5.00;;;2.23;;
73023;SDS011;72676;47.526;8.538;2023-11-21T15:11:41;3.43;;;1.93;;
73023;SDS011;72676;47.526;8.538;2023-11-21T15:14:08;7.40;;;1.40;;